Stanton, Delaware
Current Conditions -  °F | °C
As of 2:51 AM on Saturday 01 Nov 2014 (Local Time) from KILG Reporting Station
Overcast Overcast  
Wind Chill: 51°   Ceiling: 1800
Heat Index: 51°   Visibility: 10mi
Dew Point: 42°   Wind: 15mph
Humidity: 71%   Direction: 20°NNE
Pressure: 29.78"   Gusts: NA
Location:  39.7187°N, 75.6123°W
Report Text: KILG 010651Z 02013KT 10SM OVC018 11/06 A2978 RMK AO2 SLP082 T01060056
Loading
Personal Weather Stations






























Interactive Weather Map
Tropical Storm Tracking
New forecast layout! Learn more

10-Day Weather Forecast

Advertisements
Track Severe Weather on mobile